Virtual Futura



 METAR AND TAF INFORMATION
METAR FOR LEZG
ADDS - METARS form results

(1212 UTC 19 July 2019)
Data provider http://aviationweather.gov/metar/data/
 
METAR text: LEZG 191200Z 09003KT 010V150 CAVOK 29/08 Q1015
Conditions at: LEZG (ZARAGOZA (MIL/CI, ES) observed 1200 UTC 19 July 2019
Temperature: 29.0°C (84°F)
Dewpoint: 8.0°C (46°F) [RH = 27%]
Pressure (altimeter): 29.97 inches Hg (1015.0 mb)
Winds: from the E (90 degrees) at 3 MPH (3 knots; 1.5 m/s)
Visibility: 6 or more miles (10+ km)
Ceiling: ceiling and visibility are OK
Clouds: unknown
Weather: no significant weather observed at this time

METAR text: LEZG 191130Z 09001KT CAVOK 29/08 Q1016
Conditions at: LEZG (ZARAGOZA (MIL/CI, ES) observed 1130 UTC 19 July 2019
Temperature: 29.0°C (84°F)
Dewpoint: 8.0°C (46°F) [RH = 27%]
Pressure (altimeter): 30.00 inches Hg (1016.0 mb)
Winds: from the E (90 degrees) at 1 MPH (1 knots; 0.5 m/s)
Visibility: 6 or more miles (10+ km)
Ceiling: ceiling and visibility are OK
Clouds: unknown
Weather: no significant weather observed at this time

Forecast for: LEZG (ZARAGOZA (MIL/CI, ES)
Text: TAF LEZG 191100Z 1912/2012 VRB04KT CAVOK TX36/1912Z TN21/2006Z
Forecast period: 1200 UTC 19 July 2019 to 1200 UTC 20 July 2019
Forecast type: FROM: standard forecast or significant change
Winds: variable direction winds at 5 MPH (4 knots; 2.1 m/s)
Visibility: 6 or more miles 10+ km)
Ceiling: unknown
Clouds: missing
Weather: no significant weather forecast for this period
Text: BECMG 1912/1914 10012KT
Forecast period: 1200 UTC 19 July 2019 to 1200 UTC 20 July 2019
Forecast type: BECOMING: Conditions expected to become as follows by 1400 UTC 19 July 2019
Winds: from the E (100 degrees) at 14 MPH (12 knots; 6.2 m/s)
Visibility: 6 or more miles 10+ km)
Ceiling: unknown
Clouds: missing
Weather: no significant weather forecast for this period

 AIRPORT MAP

 RUNWAY INFORMATION
Runway 12L Runway length 9843 ft Runway width 148 ft
Runway elevation 823 ft Runway displaced threshold 0 ft Runway heading 120
Runway 30R Runway length 9843 ft Runway width 148 ft
Runway elevation 834 ft Runway displaced threshold 0 ft Runway heading 300
Runway 12R Runway length 12198 ft Runway width 148 ft
Runway elevation 834 ft Runway displaced threshold 0 ft Runway heading 120
Runway 30L Runway length 12198 ft Runway width 148 ft
Runway elevation 863 ft Runway displaced threshold 0 ft Runway heading 300

 AIRPORT FREQUENCIES
Type APP Name APP Frequency 119.3 MHZ
Type GND Name GND Frequency 118.1 MHZ
Type TWR Name TWR Frequency 118.1 MHZ

 AIRPORT NEAR NAVIGATION AIDS
Type VOR-DME Name Zaragoza Frequency 113000 KHZ
Type NDB Name Zaragoza Frequency 389 KHZ
Type TACAN Name Zaragoza Frequency 133700 KHZ
Type NDB Name Zaragoza Frequency 348 KHZ

Poltica de Cookies

Esta web utiliza cookies para obtener datos estadsticos de la navegacin de sus usuarios. Si continas navegando consideramos que aceptas su uso. Ms informacin X Cerrar